Time;durP1;ratioP1;P1;durP2;ratioP2;P2;SDS_P1;SDS_P2;PMS_P1;PMS_P2;Temp;Humidity;BMP_temperature;BMP_pressure;BME280_temperature;BME280_humidity;BME280_pressure;Samples;Min_cycle;Max_cycle;Signal;HPM_P1;HPM_P2
2023/01/22 00:01:07;;;;;;;3.45;1.60;;;20.50;99.90;;;;;;5084837;28;20044;-68
2023/01/22 00:03:39;;;;;;;4.32;1.50;;;20.60;99.90;;;;;;5088226;28;20361;-74
2023/01/22 00:06:06;;;;;;;3.22;1.50;;;20.70;99.90;;;;;;5086461;28;20099;-69
2023/01/22 00:08:34;;;;;;;6.47;1.65;;;20.80;99.90;;;;;;5083025;28;20032;-64
2023/01/22 00:11:01;;;;;;;3.78;1.60;;;20.90;99.90;;;;;;5070061;28;20704;-65
2023/01/22 00:13:28;;;;;;;3.03;1.80;;;21.10;99.90;;;;;;5083238;28;20028;-67
2023/01/22 00:16:01;;;;;;;4.63;1.45;;;21.20;99.90;;;;;;5086884;28;20085;-74
2023/01/22 00:18:28;;;;;;;4.78;1.25;;;21.20;99.90;;;;;;5086455;28;20036;-67
2023/01/22 00:20:55;;;;;;;4.13;1.55;;;21.20;99.90;;;;;;5085655;28;20040;-67
2023/01/22 00:23:23;;;;;;;5.90;1.98;;;21.20;99.90;;;;;;5085896;28;20111;-66
2023/01/22 00:26:01;;;;;;;9.70;6.15;;;21.20;99.90;;;;;;5087688;28;20027;-73
2023/01/22 00:28:28;;;;;;;8.35;5.30;;;21.30;99.90;;;;;;5084529;28;20032;-66
2023/01/22 00:31:02;;;;;;;3.97;1.88;;;21.30;99.90;;;;;;5082235;28;20066;-75
2023/01/22 00:33:30;;;;;;;4.50;1.85;;;21.40;99.90;;;;;;5086261;28;20032;-67
2023/01/22 00:36:03;;;;;;;4.78;1.63;;;21.50;99.90;;;;;;5083439;28;20024;-68
2023/01/22 00:38:30;;;;;;;3.25;1.58;;;21.50;99.90;;;;;;5077219;28;20039;-68
2023/01/22 00:41:04;;;;;;;5.85;1.20;;;21.70;99.90;;;;;;5067138;28;20035;-67
2023/01/22 00:43:32;;;;;;;4.15;1.48;;;21.90;99.90;;;;;;5088854;28;20135;-66
2023/01/22 00:46:00;;;;;;;5.10;1.50;;;22.10;99.90;;;;;;5087610;28;20767;-74
2023/01/22 00:48:27;;;;;;;2.65;1.33;;;22.20;99.90;;;;;;5087715;28;20031;-66
2023/01/22 00:50:54;;;;;;;3.58;1.50;;;22.30;99.90;;;;;;5087804;28;20095;-72
2023/01/22 00:53:21;;;;;;;4.25;1.50;;;22.40;99.90;;;;;;5087063;28;20063;-66
2023/01/22 00:55:53;;;;;;;4.93;1.42;;;22.60;99.90;;;;;;5086852;28;20036;-67
2023/01/22 00:58:20;;;;;;;2.97;1.42;;;22.70;99.90;;;;;;4733472;28;10000276;-68
2023/01/22 01:00:48;;;;;;;4.25;1.33;;;22.70;99.90;;;;;;5090907;28;20043;-71
2023/01/22 01:03:29;;;;;;;3.13;1.48;;;22.60;99.90;;;;;;5079107;28;20115;-66
2023/01/22 01:06:01;;;;;;;4.35;1.77;;;22.60;99.90;;;;;;5080160;28;20012;-65
2023/01/22 01:08:30;;;;;;;5.78;1.95;;;22.50;99.90;;;;;;5077911;28;20024;-69
2023/01/22 01:11:06;;;;;;;2.95;1.50;;;22.40;99.90;;;;;;5081376;28;20056;-68
2023/01/22 01:13:40;;;;;;;4.25;1.45;;;22.60;99.90;;;;;;5062584;28;20543;-66
2023/01/22 01:16:23;;;;;;;4.22;1.20;;;22.60;99.90;;;;;;5079531;28;20454;-69
2023/01/22 01:18:50;;;;;;;4.53;1.40;;;22.50;99.90;;;;;;5083557;28;20088;-68
2023/01/22 01:21:18;;;;;;;3.75;1.10;;;22.50;99.90;;;;;;5083595;28;20056;-66
2023/01/22 01:23:45;;;;;;;3.60;1.30;;;22.60;99.90;;;;;;5079861;28;20036;-70
2023/01/22 01:26:14;;;;;;;3.38;1.30;;;22.60;99.90;;;;;;5083066;28;20056;-68
2023/01/22 01:28:42;;;;;;;3.55;1.50;;;22.50;99.90;;;;;;5083939;28;20616;-67
2023/01/22 01:31:12;;;;;;;3.35;1.40;;;22.40;99.90;;;;;;5082892;28;20051;-68
2023/01/22 01:33:40;;;;;;;3.60;1.92;;;22.40;99.90;;;;;;5078929;28;20048;-67
2023/01/22 01:36:12;;;;;;;4.80;2.78;;;22.30;99.90;;;;;;5081727;28;20085;-68
2023/01/22 01:38:39;;;;;;;3.53;1.20;;;22.30;99.90;;;;;;5083150;28;20034;-67
2023/01/22 01:41:07;;;;;;;5.18;1.55;;;22.40;99.90;;;;;;5077740;28;20621;-70
2023/01/22 01:43:34;;;;;;;3.25;1.52;;;22.30;99.90;;;;;;5084133;28;20020;-67
2023/01/22 01:46:03;;;;;;;4.68;1.63;;;22.20;99.90;;;;;;5082864;28;20020;-68
2023/01/22 01:48:42;;;;;;;3.35;1.15;;;22.20;99.90;;;;;;5084020;28;20027;-67
2023/01/22 01:51:19;;;;;;;3.70;1.60;;;22.10;99.90;;;;;;5064973;28;20055;-66
2023/01/22 01:53:47;;;;;;;4.03;1.70;;;22.00;99.90;;;;;;5078106;28;20030;-66
2023/01/22 01:56:22;;;;;;;4.40;2.03;;;21.80;99.90;;;;;;5083071;28;20038;-69
2023/01/22 01:58:53;;;;;;;5.13;1.40;;;21.70;99.90;;;;;;5083303;28;20096;-67
2023/01/22 02:01:20;;;;;;;6.07;2.10;;;21.90;99.90;;;;;;5082729;28;20023;-69
2023/01/22 02:03:47;;;;;;;3.75;1.90;;;21.80;99.90;;;;;;5084074;28;20047;-67
2023/01/22 02:06:16;;;;;;;5.38;3.03;;;21.80;99.90;;;;;;5081494;28;20030;-69
2023/01/22 02:08:47;;;;;;;6.03;2.10;;;21.80;99.90;;;;;;5078734;28;20357;-66
2023/01/22 02:11:15;;;;;;;4.05;1.83;;;21.80;99.90;;;;;;5080983;28;20095;-67
2023/01/22 02:13:51;;;;;;;5.28;3.70;;;21.80;99.90;;;;;;5063869;28;20723;-69
2023/01/22 02:16:18;;;;;;;4.93;3.33;;;21.50;99.90;;;;;;5082061;28;20032;-68
2023/01/22 02:18:48;;;;;;;11.82;6.10;;;21.50;99.90;;;;;;5082551;28;20052;-71
2023/01/22 02:21:44;;;;;;;5.00;2.17;;;21.40;99.90;;;;;;5064608;28;20153;-68
2023/01/22 02:24:15;;;;;;;6.20;2.60;;;21.30;99.90;;;;;;4981939;28;20115;-67
2023/01/22 02:26:44;;;;;;;3.55;2.35;;;21.20;99.90;;;;;;4994234;28;20031;-74
2023/01/22 02:29:13;;;;;;;4.65;3.03;;;21.00;99.90;;;;;;4997169;28;20046;-66
2023/01/22 02:31:41;;;;;;;4.75;2.10;;;21.10;99.90;;;;;;4994940;28;20041;-65
2023/01/22 02:34:09;;;;;;;5.03;1.88;;;21.30;99.90;;;;;;4988090;28;20181;-72
2023/01/22 02:36:38;;;;;;;4.88;2.17;;;21.40;99.90;;;;;;4995050;28;20065;-71
2023/01/22 02:39:05;;;;;;;4.25;2.03;;;21.50;99.90;;;;;;4993492;28;20049;-66
2023/01/22 02:41:32;;;;;;;4.00;2.00;;;21.50;99.90;;;;;;4996249;28;20031;-68
2023/01/22 02:43:59;;;;;;;5.32;2.10;;;21.50;99.90;;;;;;4995169;28;20049;-67
2023/01/22 02:46:27;;;;;;;3.53;1.92;;;21.60;99.90;;;;;;4995044;28;20164;-72
2023/01/22 02:48:54;;;;;;;5.60;2.10;;;21.70;99.90;;;;;;4998473;28;20046;-71
2023/01/22 02:51:21;;;;;;;3.70;2.20;;;21.60;99.90;;;;;;4991693;28;20025;-67
2023/01/22 02:53:48;;;;;;;5.97;2.00;;;21.60;99.90;;;;;;4994344;28;20788;-72
2023/01/22 02:56:14;;;;;;;3.63;1.70;;;21.80;99.90;;;;;;4997675;28;20179;-66
2023/01/22 02:58:41;;;;;;;4.53;1.85;;;21.90;99.90;;;;;;4996962;28;20040;-74
2023/01/22 03:01:19;;;;;;;6.50;2.03;;;22.10;99.90;;;;;;5058730;28;20046;-73
2023/01/22 03:03:47;;;;;;;5.05;1.98;;;22.10;99.90;;;;;;5079699;28;20134;-69
2023/01/22 03:06:15;;;;;;;3.72;1.60;;;21.90;99.90;;;;;;5074807;28;20822;-75
2023/01/22 03:08:42;;;;;;;4.05;1.90;;;21.80;99.90;;;;;;5078698;28;20032;-68
2023/01/22 03:11:11;;;;;;;4.38;1.77;;;22.00;99.90;;;;;;5080239;28;20554;-66
2023/01/22 03:21:53;;;;;;;3.42;1.95;;;21.90;99.90;;;;;;5082218;28;20109;-65
2023/01/22 03:24:20;;;;;;;5.60;1.83;;;21.90;99.90;;;;;;5076308;28;20085;-67
2023/01/22 03:26:47;;;;;;;4.10;1.90;;;21.80;99.90;;;;;;5082057;28;20028;-72
2023/01/22 03:29:14;;;;;;;4.32;2.20;;;21.70;99.90;;;;;;5082371;28;20028;-70
2023/01/22 03:31:41;;;;;;;4.80;2.08;;;21.50;99.90;;;;;;5080871;28;20395;-66
2023/01/22 03:34:08;;;;;;;2.83;1.90;;;21.30;99.90;;;;;;5082444;28;20061;-67
2023/01/22 03:36:35;;;;;;;3.85;1.55;;;21.30;99.90;;;;;;5080009;28;20091;-65
2023/01/22 03:39:02;;;;;;;4.30;1.95;;;21.40;99.90;;;;;;5077696;28;20021;-70
2023/01/22 03:41:28;;;;;;;6.03;2.08;;;21.50;99.90;;;;;;5077901;28;20058;-66
2023/01/22 03:43:57;;;;;;;3.45;1.67;;;21.70;99.90;;;;;;5081556;28;20797;-71
2023/01/22 03:46:24;;;;;;;3.70;1.75;;;21.60;99.90;;;;;;5075835;28;20533;-65
2023/01/22 03:48:52;;;;;;;5.80;2.08;;;21.70;99.90;;;;;;5063151;28;20495;-68
2023/01/22 03:51:19;;;;;;;4.10;1.98;;;21.60;99.90;;;;;;5085149;28;20042;-72
2023/01/22 03:53:47;;;;;;;3.83;1.63;;;21.40;99.90;;;;;;5083171;28;20036;-65
2023/01/22 03:56:20;;;;;;;4.93;2.13;;;21.40;99.90;;;;;;5083796;28;20032;-65
2023/01/22 03:58:49;;;;;;;5.25;2.22;;;21.40;99.90;;;;;;5076765;28;20594;-68
2023/01/22 04:01:19;;;;;;;18.95;2.83;;;21.40;99.90;;;;;;5085541;28;20032;-67
2023/01/22 04:03:46;;;;;;;7.57;2.78;;;21.40;99.90;;;;;;5083617;28;20116;-73
2023/01/22 04:06:14;;;;;;;8.23;2.33;;;21.50;99.90;;;;;;5082566;28;20483;-68
2023/01/22 04:08:43;;;;;;;6.07;2.08;;;21.60;99.90;;;;;;5084467;28;20027;-67
2023/01/22 04:11:11;;;;;;;10.27;3.40;;;21.60;99.90;;;;;;5066901;28;20043;-68
2023/01/22 04:13:40;;;;;;;4.30;1.60;;;21.70;99.90;;;;;;5065377;28;20039;-69
2023/01/22 04:16:08;;;;;;;4.78;2.17;;;21.70;99.90;;;;;;5086166;28;20024;-73
2023/01/22 04:18:35;;;;;;;3.05;1.95;;;21.80;99.90;;;;;;5085478;28;20028;-69
2023/01/22 04:21:03;;;;;;;4.72;2.00;;;21.80;99.90;;;;;;5085764;28;20710;-73
2023/01/22 04:23:30;;;;;;;5.30;2.10;;;21.90;99.90;;;;;;5084291;28;20123;-68
2023/01/22 04:25:57;;;;;;;6.43;1.90;;;21.80;99.90;;;;;;5082745;28;20110;-68
2023/01/22 04:28:24;;;;;;;7.07;2.30;;;21.90;99.90;;;;;;5062632;28;20056;-65
2023/01/22 04:30:54;;;;;;;4.72;1.65;;;21.80;99.90;;;;;;5083551;28;20622;-72
2023/01/22 04:33:21;;;;;;;4.10;1.60;;;21.70;99.90;;;;;;5086084;28;20044;-68
2023/01/22 04:35:54;;;;;;;9.90;2.63;;;21.70;99.90;;;;;;5079930;28;20024;-68
2023/01/22 04:38:22;;;;;;;2.80;1.40;;;21.30;99.90;;;;;;4729069;28;10000227;-64
2023/01/22 04:40:49;;;;;;;4.97;1.02;;;20.70;99.90;;;;;;5082087;28;20035;-67
2023/01/22 04:43:16;;;;;;;4.68;1.50;;;20.20;99.90;;;;;;5078022;28;20135;-66
2023/01/22 04:45:43;;;;;;;8.90;1.60;;;19.90;99.90;;;;;;5078355;28;20294;-66
2023/01/22 04:48:11;;;;;;;6.53;1.55;;;19.70;99.90;;;;;;5079946;28;20024;-67
2023/01/22 04:50:38;;;;;;;8.90;1.67;;;19.60;99.90;;;;;;5078991;28;20070;-67
2023/01/22 04:53:05;;;;;;;10.60;1.73;;;19.50;99.90;;;;;;5080335;28;20032;-65
2023/01/22 04:55:32;;;;;;;5.43;1.70;;;19.40;99.90;;;;;;5079915;28;20028;-68
2023/01/22 04:58:00;;;;;;;7.53;1.30;;;19.30;99.90;;;;;;5075385;28;20020;-65
2023/01/22 05:00:28;;;;;;;6.78;1.70;;;19.30;99.90;;;;;;5078495;28;20020;-65
2023/01/22 05:02:57;;;;;;;4.45;1.15;;;19.30;99.90;;;;;;5078416;28;20081;-65
2023/01/22 05:05:24;;;;;;;3.13;1.50;;;19.40;99.90;;;;;;5078814;28;20030;-67
2023/01/22 05:07:51;;;;;;;4.68;1.25;;;19.30;99.90;;;;;;5073549;28;20024;-65
2023/01/22 05:10:18;;;;;;;3.40;1.20;;;19.30;99.90;;;;;;5079784;28;20050;-63
2023/01/22 05:12:45;;;;;;;4.95;0.95;;;19.20;99.90;;;;;;5080852;28;20078;-64
2023/01/22 05:15:12;;;;;;;5.18;1.25;;;19.20;99.90;;;;;;5079359;28;20059;-64
2023/01/22 05:17:39;;;;;;;3.95;1.73;;;19.20;99.90;;;;;;5079215;28;20031;-63
2023/01/22 05:20:07;;;;;;;4.45;1.70;;;19.10;99.90;;;;;;5078013;28;20028;-67
2023/01/22 05:22:34;;;;;;;4.75;1.10;;;19.10;99.90;;;;;;5079410;28;20067;-66
2023/01/22 05:25:01;;;;;;;7.60;2.50;;;19.00;99.90;;;;;;5079449;28;20024;-65
2023/01/22 05:27:28;;;;;;;3.50;1.23;;;19.00;99.90;;;;;;5079335;28;20091;-64
2023/01/22 05:29:58;;;;;;;5.68;1.30;;;19.00;99.90;;;;;;5064388;28;20024;-66
2023/01/22 05:32:25;;;;;;;3.45;1.10;;;19.10;99.90;;;;;;5078201;28;20568;-63
2023/01/22 05:34:51;;;;;;;7.13;1.80;;;19.20;99.90;;;;;;5080040;28;20466;-64
2023/01/22 05:37:18;;;;;;;6.50;3.67;;;19.20;99.90;;;;;;5075454;28;20851;-66
2023/01/22 05:39:45;;;;;;;4.55;1.27;;;19.20;99.90;;;;;;5067414;28;20063;-66
2023/01/22 05:42:14;;;;;;;4.28;1.13;;;19.30;99.90;;;;;;5079163;28;20038;-63
2023/01/22 05:44:42;;;;;;;4.18;1.50;;;19.50;99.90;;;;;;5079526;28;20675;-65
2023/01/22 05:47:09;;;;;;;5.18;1.60;;;19.70;99.90;;;;;;5078193;28;20044;-64
2023/01/22 05:49:36;;;;;;;4.40;1.75;;;19.80;99.90;;;;;;5075496;28;20024;-65
2023/01/22 05:52:03;;;;;;;2.15;1.00;;;19.80;99.90;;;;;;5080099;28;20024;-64
2023/01/22 05:54:30;;;;;;;6.78;1.70;;;19.80;99.90;;;;;;5078991;28;20038;-64
2023/01/22 05:56:57;;;;;;;2.60;1.00;;;19.90;99.90;;;;;;5076163;28;20063;-67
2023/01/22 05:59:23;;;;;;;5.72;1.25;;;20.00;99.90;;;;;;5073604;28;20127;-64
2023/01/22 06:01:50;;;;;;;3.70;1.40;;;20.10;99.90;;;;;;5079611;28;20020;-65
2023/01/22 06:04:17;;;;;;;2.80;1.30;;;20.20;99.90;;;;;;5074518;28;20031;-64
2023/01/22 06:06:44;;;;;;;3.10;1.60;;;20.40;99.90;;;;;;5058859;28;20074;-63
2023/01/22 06:09:14;;;;;;;5.20;1.05;;;20.50;99.90;;;;;;5077118;28;20027;-63
2023/01/22 06:11:41;;;;;;;2.25;0.93;;;20.60;99.90;;;;;;5078744;28;20597;-64
2023/01/22 06:14:09;;;;;;;6.25;1.85;;;20.60;99.90;;;;;;5080136;28;20331;-64
2023/01/22 06:16:36;;;;;;;4.93;1.27;;;20.70;99.90;;;;;;5074182;28;20020;-66
2023/01/22 06:19:03;;;;;;;5.15;1.35;;;20.70;99.90;;;;;;5078468;28;20059;-66
2023/01/22 06:21:29;;;;;;;2.25;1.08;;;20.70;99.90;;;;;;5074667;28;20159;-64
2023/01/22 06:23:56;;;;;;;2.95;1.00;;;20.70;99.90;;;;;;5060816;28;20039;-64
2023/01/22 06:26:23;;;;;;;3.72;1.00;;;20.70;99.90;;;;;;5078763;28;20110;-64
2023/01/22 06:28:50;;;;;;;2.47;1.15;;;20.70;99.90;;;;;;5075468;28;20488;-65
2023/01/22 06:31:17;;;;;;;3.47;1.00;;;20.70;99.90;;;;;;5076191;28;20759;-63
2023/01/22 06:33:44;;;;;;;2.13;1.10;;;20.70;99.90;;;;;;5080155;28;20028;-66
2023/01/22 06:36:11;;;;;;;3.55;1.20;;;20.70;99.90;;;;;;5078480;28;20110;-64
2023/01/22 06:38:38;;;;;;;4.28;1.70;;;20.50;99.90;;;;;;5074793;28;20028;-65
2023/01/22 06:41:05;;;;;;;6.68;1.23;;;20.40;99.90;;;;;;5075696;28;20064;-65
2023/01/22 06:43:32;;;;;;;7.30;1.77;;;20.40;99.90;;;;;;5078389;28;20116;-65
2023/01/22 06:45:59;;;;;;;4.68;2.17;;;20.40;99.90;;;;;;5075709;28;20108;-64
2023/01/22 06:48:26;;;;;;;4.38;2.00;;;20.50;99.90;;;;;;5077944;28;20134;-67
2023/01/22 06:50:57;;;;;;;4.60;2.30;;;20.50;99.90;;;;;;5078129;28;20111;-62
2023/01/22 06:53:25;;;;;;;3.73;1.67;;;20.50;99.90;;;;;;5076810;28;20276;-63
2023/01/22 06:55:52;;;;;;;7.53;1.75;;;20.60;99.90;;;;;;5076469;28;20462;-66
2023/01/22 06:58:19;;;;;;;3.83;1.30;;;20.70;99.90;;;;;;5078770;28;20356;-65
2023/01/22 07:00:45;;;;;;;8.13;1.10;;;20.80;99.90;;;;;;5078051;28;20077;-66
2023/01/22 07:03:15;;;;;;;4.03;1.27;;;20.70;99.90;;;;;;5076444;28;20377;-63
2023/01/22 07:05:42;;;;;;;2.78;0.90;;;20.60;99.90;;;;;;5074424;28;20570;-63
2023/01/22 07:08:13;;;;;;;3.25;1.23;;;20.50;99.90;;;;;;5059403;28;20020;-65
2023/01/22 07:10:40;;;;;;;6.72;1.60;;;20.40;99.90;;;;;;5072657;28;20020;-64
2023/01/22 07:13:09;;;;;;;3.97;1.60;;;20.40;99.90;;;;;;5076853;28;20039;-68
2023/01/22 07:15:36;;;;;;;6.30;1.00;;;20.50;99.90;;;;;;5074863;28;20077;-64
2023/01/22 07:18:03;;;;;;;2.42;1.25;;;20.50;99.90;;;;;;5077332;28;20107;-70
2023/01/22 07:20:29;;;;;;;4.60;1.58;;;20.60;99.90;;;;;;5077823;28;20648;-65
2023/01/22 07:22:58;;;;;;;4.78;0.95;;;20.50;99.90;;;;;;5085306;28;20016;-67
2023/01/22 07:25:26;;;;;;;3.88;1.27;;;20.50;99.90;;;;;;5084257;28;20043;-65
2023/01/22 07:27:58;;;;;;;4.25;1.23;;;20.30;99.90;;;;;;5063492;28;20035;-72
2023/01/22 07:30:25;;;;;;;2.55;0.80;;;20.30;99.90;;;;;;5069358;28;20020;-65
2023/01/22 07:32:52;;;;;;;1.58;0.50;;;20.20;99.90;;;;;;5084207;28;20102;-73
2023/01/22 07:35:20;;;;;;;2.80;0.57;;;20.20;99.90;;;;;;5083410;28;20533;-74
2023/01/22 07:37:54;;;;;;;1.90;0.80;;;20.10;99.90;;;;;;5081861;28;20760;-71
2023/01/22 07:40:23;;;;;;;5.72;0.82;;;20.00;99.90;;;;;;5085115;28;20111;-66
2023/01/22 07:42:51;;;;;;;6.32;1.10;;;19.80;99.90;;;;;;5084010;28;20032;-65
2023/01/22 07:45:18;;;;;;;7.00;1.10;;;19.80;99.90;;;;;;5081232;28;20577;-65
2023/01/22 07:47:53;;;;;;;5.43;1.48;;;19.70;99.90;;;;;;5081787;28;20027;-71
2023/01/22 07:50:26;;;;;;;13.32;8.05;;;19.60;99.90;;;;;;5080861;28;20020;-66
2023/01/22 07:52:52;;;;;;;;;;;19.50;99.90;;;;;;5077009;28;20028;-67
2023/01/22 07:55:20;;;;;;;6.03;1.27;;;19.40;99.90;;;;;;5077269;28;19923;-66
2023/01/22 07:57:47;;;;;;;2.35;1.25;;;19.30;99.90;;;;;;5079138;28;20120;-69
2023/01/22 08:00:17;;;;;;;5.82;1.30;;;19.30;99.90;;;;;;5077067;28;20033;-67
2023/01/22 08:02:43;;;;;;;5.00;1.20;;;19.30;99.90;;;;;;5074503;28;20413;-69
2023/01/22 08:05:13;;;;;;;3.03;1.02;;;19.20;99.90;;;;;;5076015;28;20059;-74
2023/01/22 08:07:40;;;;;;;3.80;1.08;;;19.30;99.90;;;;;;5078821;28;20074;-73
2023/01/22 08:10:13;;;;;;;3.75;0.98;;;19.20;99.90;;;;;;5081031;28;20024;-66
2023/01/22 08:12:42;;;;;;;3.17;0.85;;;19.10;99.90;;;;;;5079394;28;20189;-68
2023/01/22 08:15:10;;;;;;;4.93;1.02;;;19.10;99.90;;;;;;5080091;28;20197;-72
2023/01/22 08:17:38;;;;;;;2.95;0.95;;;19.10;99.90;;;;;;5082422;28;20028;-74
2023/01/22 08:20:06;;;;;;;2.15;0.88;;;19.10;99.90;;;;;;5065883;28;20337;-67
2023/01/22 08:22:33;;;;;;;3.15;0.93;;;19.10;99.90;;;;;;5081242;28;20054;-66
2023/01/22 08:25:00;;;;;;;5.68;0.80;;;19.00;99.90;;;;;;5076997;28;20028;-72
2023/01/22 08:27:27;;;;;;;2.83;0.88;;;19.00;99.90;;;;;;5071238;28;20067;-66
2023/01/22 08:29:54;;;;;;;2.05;0.95;;;19.00;99.90;;;;;;5078061;28;20028;-71
2023/01/22 08:32:21;;;;;;;2.95;0.63;;;19.00;99.90;;;;;;5074690;28;20024;-72
2023/01/22 08:34:49;;;;;;;3.60;0.98;;;18.80;99.90;;;;;;5076498;28;20097;-67
2023/01/22 08:37:16;;;;;;;2.03;0.90;;;18.90;99.90;;;;;;5077864;28;20038;-64
2023/01/22 08:39:43;;;;;;;2.65;0.73;;;18.90;99.90;;;;;;5080547;28;20110;-68
2023/01/22 08:42:10;;;;;;;2.78;0.70;;;18.80;99.90;;;;;;5077750;28;20031;-63
2023/01/22 08:44:37;;;;;;;2.72;0.60;;;18.90;99.90;;;;;;5076787;28;20055;-71
2023/01/22 08:47:04;;;;;;;3.35;0.80;;;18.90;99.90;;;;;;5077063;28;20027;-69
2023/01/22 08:49:31;;;;;;;5.50;1.15;;;18.90;99.90;;;;;;5078309;28;20316;-65
2023/01/22 08:51:58;;;;;;;2.88;1.10;;;18.90;99.90;;;;;;5077149;28;20020;-70
2023/01/22 08:54:25;;;;;;;2.85;0.63;;;18.90;99.90;;;;;;5076699;28;21328;-64
2023/01/22 08:56:52;;;;;;;3.22;0.70;;;18.90;99.90;;;;;;5074262;28;20024;-71
2023/01/22 08:59:19;;;;;;;3.70;0.50;;;18.90;99.90;;;;;;5078124;28;20760;-66
2023/01/22 09:01:46;;;;;;;1.88;0.90;;;18.80;99.90;;;;;;5078897;28;20233;-74
2023/01/22 09:04:13;;;;;;;2.85;0.73;;;18.80;99.90;;;;;;5082723;28;20052;-76
2023/01/22 09:06:40;;;;;;;3.05;0.93;;;18.70;99.90;;;;;;5076947;28;20055;-74
2023/01/22 09:09:07;;;;;;;1.70;0.95;;;18.80;99.90;;;;;;5080163;28;20024;-64
2023/01/22 09:11:34;;;;;;;2.50;0.63;;;18.70;99.90;;;;;;5080227;28;20028;-64
2023/01/22 09:14:07;;;;;;;2.38;0.80;;;18.70;99.90;;;;;;5079453;28;20032;-64
2023/01/22 09:16:34;;;;;;;3.13;0.73;;;18.60;99.90;;;;;;5060082;28;20122;-74
2023/01/22 09:19:01;;;;;;;2.13;0.60;;;18.70;99.90;;;;;;5055525;28;20444;-74
2023/01/22 09:21:28;;;;;;;3.20;0.95;;;18.70;99.90;;;;;;5054482;28;20581;-65
2023/01/22 09:23:54;;;;;;;4.22;0.63;;;18.70;99.90;;;;;;5059329;28;20516;-68
2023/01/22 09:26:21;;;;;;;1.42;0.73;;;18.60;99.90;;;;;;5057341;28;20085;-67
2023/01/22 09:28:48;;;;;;;2.50;0.70;;;18.60;99.90;;;;;;5054099;28;20043;-67
2023/01/22 09:31:16;;;;;;;3.28;0.70;;;18.70;99.90;;;;;;5054839;28;20036;-68
2023/01/22 09:33:43;;;;;;;1.55;0.63;;;18.70;99.90;;;;;;5056887;28;20043;-64
2023/01/22 09:36:12;;;;;;;4.10;1.10;;;18.80;99.90;;;;;;5055983;28;20074;-65
2023/01/22 09:38:39;;;;;;;4.40;1.83;;;18.80;99.90;;;;;;5057151;28;20035;-65
2023/01/22 09:41:24;;;;;;;2.50;1.33;;;18.80;99.90;;;;;;5050364;28;20050;-65
2023/01/22 09:44:14;;;;;;;3.08;0.80;;;18.80;99.90;;;;;;5055605;28;20036;-68
2023/01/22 09:46:53;;;;;;;3.75;1.10;;;18.80;99.90;;;;;;5050329;28;20036;-74
2023/01/22 09:49:29;;;;;;;2.80;1.25;;;18.80;99.90;;;;;;5059828;28;20028;-74
2023/01/22 09:51:59;;;;;;;1.88;1.02;;;18.80;99.90;;;;;;5054053;28;20024;-67
2023/01/22 09:54:27;;;;;;;2.17;1.00;;;18.80;99.90;;;;;;5060687;28;20115;-69
2023/01/22 09:56:58;;;;;;;1.80;0.85;;;18.80;99.90;;;;;;5057468;28;20548;-67
2023/01/22 09:59:47;;;;;;;2.85;1.27;;;18.80;99.90;;;;;;5057351;28;20032;-68
2023/01/22 10:02:41;;;;;;;2.92;0.98;;;18.80;99.90;;;;;;5055140;28;20443;-68
2023/01/22 10:05:21;;;;;;;5.88;1.17;;;18.80;99.90;;;;;;5055339;28;20209;-67
2023/01/22 10:08:12;;;;;;;2.25;1.23;;;18.80;99.90;;;;;;5055669;28;20083;-68
2023/01/22 10:10:39;;;;;;;2.85;0.80;;;18.80;99.90;;;;;;5051192;28;20029;-64
2023/01/22 10:13:11;;;;;;;2.63;0.70;;;18.80;99.90;;;;;;5059435;28;20047;-66
2023/01/22 10:15:38;;;;;;;2.30;1.05;;;18.80;99.90;;;;;;5056873;28;20032;-64
2023/01/22 10:18:36;;;;;;;2.03;0.88;;;18.80;99.90;;;;;;5059238;28;20030;-67
2023/01/22 10:21:30;;;;;;;4.95;1.15;;;18.70;99.90;;;;;;5088773;22;20470;-68
2023/01/22 10:23:58;;;;;;;4.88;1.23;;;18.70;99.90;;;;;;5092285;27;20100;-68
2023/01/22 10:26:38;;;;;;;5.60;2.03;;;18.50;99.90;;;;;;5099254;27;20038;-64
2023/01/22 10:29:20;;;;;;;4.03;1.42;;;18.40;99.90;;;;;;5094465;28;20054;-67
2023/01/22 10:31:51;;;;;;;4.15;1.05;;;18.30;99.90;;;;;;5099977;27;20028;-65
2023/01/22 10:34:38;;;;;;;3.58;1.10;;;18.30;99.90;;;;;;5100418;27;20056;-65
2023/01/22 10:37:17;;;;;;;2.40;0.80;;;18.20;99.90;;;;;;5100627;27;20055;-66
2023/01/22 10:39:49;;;;;;;4.35;2.13;;;18.10;99.90;;;;;;5101072;27;20491;-67
2023/01/22 10:42:28;;;;;;;2.55;1.00;;;18.10;99.90;;;;;;5101151;27;20032;-68
2023/01/22 10:45:10;;;;;;;5.18;1.67;;;18.10;99.90;;;;;;5105267;27;20020;-68
2023/01/22 10:47:37;;;;;;;6.43;1.58;;;18.10;99.90;;;;;;5101858;28;20046;-66
2023/01/22 10:50:14;;;;;;;5.65;2.72;;;18.10;99.90;;;;;;5101145;28;20034;-67
2023/01/22 10:52:43;;;;;;;1.55;0.77;;;18.10;99.90;;;;;;5099560;28;20029;-66
2023/01/22 10:55:23;;;;;;;3.95;1.90;;;18.10;99.90;;;;;;5099972;28;20120;-69
2023/01/22 10:58:04;;;;;;;2.25;1.70;;;18.10;99.90;;;;;;5080166;28;20041;-69
2023/01/22 11:00:37;;;;;;;5.55;1.80;;;18.10;99.90;;;;;;5099824;28;20088;-67
2023/01/22 11:03:21;;;;;;;1.80;1.27;;;18.00;99.90;;;;;;5099694;28;20026;-67
2023/01/22 11:05:54;;;;;;;3.30;1.73;;;17.90;99.90;;;;;;5100288;28;20107;-66
2023/01/22 11:08:26;;;;;;;4.13;1.10;;;17.90;99.90;;;;;;5097858;28;20019;-65
2023/01/22 11:11:01;;;;;;;2.60;1.60;;;17.90;99.90;;;;;;5104448;28;20020;-66
2023/01/22 11:13:45;;;;;;;4.78;1.13;;;17.80;99.90;;;;;;5102004;28;20302;-66
2023/01/22 11:16:33;;;;;;;3.45;0.90;;;17.80;99.90;;;;;;5103230;28;20032;-68
2023/01/22 11:19:23;;;;;;;2.38;0.93;;;17.90;99.90;;;;;;5102713;28;20118;-67
2023/01/22 11:21:55;;;;;;;3.15;1.30;;;17.80;99.90;;;;;;5096088;28;20127;-66
2023/01/22 11:24:41;;;;;;;1.98;0.85;;;17.80;99.90;;;;;;5100587;28;20431;-66
2023/01/22 11:27:15;;;;;;;3.50;1.30;;;17.80;99.90;;;;;;5102333;28;20046;-69
2023/01/22 11:30:11;;;;;;;3.65;1.08;;;17.80;99.90;;;;;;5101273;28;20339;-66
2023/01/22 11:32:47;;;;;;;3.75;1.15;;;17.80;99.90;;;;;;5101870;28;20034;-68
2023/01/22 11:35:35;;;;;;;4.70;1.40;;;17.80;99.90;;;;;;5082605;28;20084;-64
2023/01/22 11:38:35;;;;;;;2.50;1.38;;;17.80;99.90;;;;;;5099869;28;20084;-68
2023/01/22 11:41:38;;;;;;;3.88;1.40;;;17.80;99.90;;;;;;5029618;28;20540;-65
2023/01/22 11:44:29;;;;;;;2.30;1.20;;;17.80;99.90;;;;;;5026092;28;20038;-68
2023/01/22 11:47:06;;;;;;;3.85;1.58;;;17.80;99.90;;;;;;5025033;28;20056;-66
2023/01/22 11:50:02;;;;;;;4.43;2.65;;;17.80;99.90;;;;;;5030314;28;20059;-69
2023/01/22 11:52:37;;;;;;;4.22;2.45;;;17.80;99.90;;;;;;5025550;28;20086;-63
2023/01/22 11:55:38;;;;;;;3.40;2.53;;;17.80;99.90;;;;;;5029359;28;20512;-68
2023/01/22 11:58:34;;;;;;;6.88;5.55;;;17.80;99.90;;;;;;5013418;28;20449;-67
2023/01/22 12:01:22;;;;;;;9.50;6.35;;;17.90;99.90;;;;;;5010877;28;20037;-68
2023/01/22 12:04:00;;;;;;;8.27;6.57;;;17.90;99.90;;;;;;5013760;28;20120;-69
2023/01/22 12:06:47;;;;;;;6.82;6.13;;;17.90;99.90;;;;;;4988141;28;20026;-69
2023/01/22 12:09:23;;;;;;;8.95;5.15;;;17.90;99.90;;;;;;5002495;28;20432;-70
2023/01/22 12:12:02;;;;;;;5.15;3.97;;;17.80;99.90;;;;;;5024672;28;20057;-70
2023/01/22 12:14:37;;;;;;;9.23;7.18;;;17.90;99.90;;;;;;5021468;28;20111;-65
2023/01/22 12:17:37;;;;;;;7.70;7.00;;;17.90;99.90;;;;;;5023488;28;20124;-68
2023/01/22 12:20:23;;;;;;;7.90;6.68;;;18.00;99.90;;;;;;5004827;28;20100;-69
2023/01/22 12:22:56;;;;;;;3.42;3.03;;;18.00;99.90;;;;;;5019102;28;20670;-65
2023/01/22 12:25:49;;;;;;;3.60;2.22;;;18.00;99.90;;;;;;5023336;28;20075;-69
2023/01/22 12:28:31;;;;;;;2.67;1.88;;;18.00;99.90;;;;;;5016259;28;20610;-69
2023/01/22 12:31:14;;;;;;;2.63;2.13;;;18.00;99.90;;;;;;5008321;28;20167;-68
2023/01/22 12:33:43;;;;;;;3.25;2.47;;;18.00;99.90;;;;;;5033178;28;20033;-67
2023/01/22 12:36:15;;;;;;;3.88;2.75;;;18.10;99.90;;;;;;5102773;28;20040;-66
2023/01/22 12:38:54;;;;;;;5.57;1.63;;;18.10;99.90;;;;;;5088353;28;20338;-66
2023/01/22 12:41:26;;;;;;;5.80;1.75;;;18.10;99.90;;;;;;5106961;27;20079;-67
2023/01/22 12:44:18;;;;;;;3.72;1.75;;;18.20;99.90;;;;;;5107625;28;20047;-66
2023/01/22 12:47:07;;;;;;;3.53;1.40;;;18.20;99.90;;;;;;5107350;28;20629;-68
2023/01/22 12:49:45;;;;;;;2.15;1.30;;;18.20;99.90;;;;;;5085989;28;20478;-68
2023/01/22 12:52:46;;;;;;;1.98;1.38;;;18.20;99.90;;;;;;5107792;28;20096;-64
2023/01/22 12:55:42;;;;;;;4.28;1.73;;;18.30;99.90;;;;;;5041070;28;20140;-69
2023/01/22 12:58:26;;;;;;;3.67;1.35;;;18.20;99.90;;;;;;5042577;28;20414;-64
2023/01/22 13:01:13;;;;;;;5.03;1.35;;;18.20;99.90;;;;;;5036592;28;20086;-66
2023/01/22 13:03:41;;;;;;;5.53;1.27;;;18.20;99.90;;;;;;5040473;28;20055;-68
2023/01/22 13:06:29;;;;;;;7.05;1.35;;;18.30;99.90;;;;;;5036855;28;20091;-65
2023/01/22 13:08:56;;;;;;;2.75;1.17;;;18.30;99.90;;;;;;5035805;28;20464;-68
2023/01/22 13:11:38;;;;;;;2.30;1.40;;;18.30;99.90;;;;;;5039906;28;20033;-68
2023/01/22 13:14:30;;;;;;;3.00;1.10;;;18.30;99.90;;;;;;5041574;28;20534;-64
2023/01/22 13:16:59;;;;;;;5.10;1.47;;;18.20;99.90;;;;;;5025588;28;20036;-65